Time;durP1;ratioP1;P1;durP2;ratioP2;P2;SDS_P1;SDS_P2;PMS_P1;PMS_P2;Temp;Humidity;BMP_temperature;BMP_pressure;BME280_temperature;BME280_humidity;BME280_pressure;Samples;Min_cycle;Max_cycle;Signal;HPM_P1;HPM_P2
2023/10/31 00:00:13;;;;;;;4.60;4.13;;;18.50;70.90;;;;;;5022694;28;20051;-67
2023/10/31 00:02:39;;;;;;;4.95;4.45;;;18.50;70.90;;;;;;4995765;28;20392;-67
2023/10/31 00:05:05;;;;;;;4.65;3.63;;;18.50;70.80;;;;;;5022642;28;20495;-66
2023/10/31 00:07:30;;;;;;;3.95;3.55;;;18.50;70.90;;;;;;5021571;28;20134;-68
2023/10/31 00:09:56;;;;;;;5.13;4.63;;;18.50;70.90;;;;;;5020453;28;20124;-67
2023/10/31 00:12:22;;;;;;;5.30;4.70;;;18.50;70.90;;;;;;5002518;28;20393;-66
2023/10/31 00:14:47;;;;;;;5.38;4.88;;;18.50;70.90;;;;;;5020588;28;20021;-66
2023/10/31 00:17:13;;;;;;;6.07;4.38;;;18.50;70.90;;;;;;5003976;28;20084;-67
2023/10/31 00:19:38;;;;;;;4.85;4.30;;;18.50;70.80;;;;;;5002670;28;22248;-66
2023/10/31 00:22:05;;;;;;;6.32;5.38;;;18.50;70.90;;;;;;5019249;28;20057;-66
2023/10/31 00:24:32;;;;;;;4.80;4.10;;;18.50;70.90;;;;;;5018707;28;20042;-66
2023/10/31 00:26:58;;;;;;;4.50;4.10;;;18.50;70.80;;;;;;5023269;28;20095;-67
2023/10/31 00:29:23;;;;;;;5.95;4.40;;;18.50;70.90;;;;;;5021816;28;20040;-67
2023/10/31 00:31:49;;;;;;;5.55;4.90;;;18.50;70.90;;;;;;5003649;28;20033;-67
2023/10/31 00:34:15;;;;;;;4.68;4.28;;;18.50;70.90;;;;;;5021848;28;20033;-67
2023/10/31 00:36:41;;;;;;;5.20;4.70;;;18.50;70.90;;;;;;5016278;28;20041;-66
2023/10/31 00:39:06;;;;;;;5.18;4.68;;;18.50;70.90;;;;;;5020670;28;20030;-68
2023/10/31 00:41:32;;;;;;;5.30;4.60;;;18.50;70.90;;;;;;5001549;28;20338;-67
2023/10/31 00:43:57;;;;;;;4.93;4.43;;;18.50;70.90;;;;;;5004000;28;20034;-66
2023/10/31 00:46:23;;;;;;;5.50;5.00;;;18.50;70.80;;;;;;5020636;28;20083;-67
2023/10/31 00:48:48;;;;;;;5.07;4.57;;;18.50;70.90;;;;;;5014887;28;20125;-67
2023/10/31 00:51:14;;;;;;;6.15;5.53;;;18.50;70.90;;;;;;5018389;28;20049;-68
2023/10/31 00:53:39;;;;;;;5.78;4.80;;;18.60;70.90;;;;;;5016202;28;20060;-69
2023/10/31 00:56:05;;;;;;;5.50;4.90;;;18.50;70.90;;;;;;5023339;28;20475;-69
2023/10/31 00:58:31;;;;;;;5.60;5.10;;;18.50;70.90;;;;;;5020065;28;20087;-68
2023/10/31 01:00:57;;;;;;;6.28;5.50;;;18.50;70.80;;;;;;5021360;28;20372;-68
2023/10/31 01:03:22;;;;;;;5.65;5.15;;;18.50;70.90;;;;;;5021860;28;20091;-68
2023/10/31 01:05:48;;;;;;;4.88;4.47;;;18.60;70.90;;;;;;5020200;28;20025;-68
2023/10/31 01:08:13;;;;;;;5.38;4.88;;;18.50;70.90;;;;;;5021372;28;20057;-68
2023/10/31 01:10:39;;;;;;;7.68;5.45;;;18.50;70.90;;;;;;5020496;28;20569;-69
2023/10/31 01:13:05;;;;;;;5.45;4.95;;;18.50;70.90;;;;;;5018723;28;20623;-68
2023/10/31 01:15:30;;;;;;;5.47;4.88;;;18.50;70.90;;;;;;5019630;28;20518;-67
2023/10/31 01:17:56;;;;;;;6.30;5.38;;;18.60;70.90;;;;;;5015904;28;20350;-67
2023/10/31 01:20:21;;;;;;;5.03;4.57;;;18.60;71.00;;;;;;5015193;28;20552;-69
2023/10/31 01:22:47;;;;;;;5.78;5.03;;;18.50;70.90;;;;;;5015477;28;20054;-68
2023/10/31 01:25:12;;;;;;;5.40;4.90;;;18.60;71.00;;;;;;5022724;28;20034;-68
2023/10/31 01:27:38;;;;;;;5.55;5.05;;;18.50;70.90;;;;;;5019163;28;20053;-67
2023/10/31 01:30:04;;;;;;;5.95;5.45;;;18.50;70.90;;;;;;5003731;28;20029;-69
2023/10/31 01:32:29;;;;;;;6.50;5.55;;;18.50;70.80;;;;;;5001861;28;20025;-68
2023/10/31 01:34:55;;;;;;;6.00;5.40;;;18.50;70.90;;;;;;5018680;28;20034;-68
2023/10/31 01:37:21;;;;;;;7.03;4.68;;;18.60;70.90;;;;;;5002970;28;20132;-66
2023/10/31 01:39:47;;;;;;;5.07;4.68;;;18.50;70.90;;;;;;5003429;28;20430;-68
2023/10/31 01:42:16;;;;;;;4.97;4.47;;;18.60;70.90;;;;;;5016717;28;20029;-67
2023/10/31 01:44:42;;;;;;;5.18;4.57;;;18.50;70.90;;;;;;5001298;28;20025;-69
2023/10/31 01:47:07;;;;;;;5.63;5.05;;;18.60;70.90;;;;;;5014722;28;20029;-68
2023/10/31 01:49:33;;;;;;;5.40;4.90;;;18.60;70.90;;;;;;5001591;28;20038;-69
2023/10/31 01:52:03;;;;;;;5.30;4.80;;;18.50;70.80;;;;;;5003109;28;20038;-68
2023/10/31 01:54:29;;;;;;;5.63;5.10;;;18.60;70.90;;;;;;5020930;28;20033;-68
2023/10/31 01:56:57;;;;;;;5.13;4.55;;;18.60;70.90;;;;;;5019780;28;20033;-68
2023/10/31 01:59:27;;;;;;;6.07;5.47;;;18.50;70.90;;;;;;5019848;28;20544;-68
2023/10/31 02:01:53;;;;;;;4.85;4.35;;;18.60;70.90;;;;;;5017640;28;20474;-68
2023/10/31 02:04:18;;;;;;;5.10;4.57;;;18.60;70.90;;;;;;5018279;28;20037;-69
2023/10/31 02:06:44;;;;;;;6.00;5.45;;;18.60;70.90;;;;;;5019268;28;20515;-68
2023/10/31 02:09:09;;;;;;;6.22;4.82;;;18.60;70.90;;;;;;5016479;28;20081;-68
2023/10/31 02:11:35;;;;;;;4.60;4.18;;;18.60;70.90;;;;;;5016137;28;20067;-69
2023/10/31 02:14:01;;;;;;;4.97;4.47;;;18.60;70.90;;;;;;5017840;28;20128;-67
2023/10/31 02:16:27;;;;;;;4.95;4.28;;;18.50;70.80;;;;;;5017031;28;20056;-68
2023/10/31 02:18:53;;;;;;;6.28;5.00;;;18.50;70.90;;;;;;5016567;28;20062;-68
2023/10/31 02:21:20;;;;;;;4.80;4.32;;;18.60;70.90;;;;;;5018783;28;20560;-68
2023/10/31 02:23:57;;;;;;;4.70;4.28;;;18.60;70.90;;;;;;5018951;28;20029;-67
2023/10/31 02:26:22;;;;;;;5.00;4.50;;;18.60;70.90;;;;;;5017526;28;20639;-68
2023/10/31 02:28:48;;;;;;;5.60;4.95;;;18.60;70.90;;;;;;5017566;28;20121;-68
2023/10/31 02:31:13;;;;;;;4.45;4.05;;;18.60;71.00;;;;;;5017952;28;20535;-67
2023/10/31 02:33:39;;;;;;;5.22;4.50;;;18.60;70.90;;;;;;5018790;28;20048;-67
2023/10/31 02:36:05;;;;;;;5.20;4.70;;;18.60;71.00;;;;;;5019498;28;20029;-68
2023/10/31 02:38:30;;;;;;;4.88;4.47;;;18.60;71.00;;;;;;5016846;28;20116;-67
2023/10/31 02:40:56;;;;;;;4.45;4.05;;;18.60;70.90;;;;;;5017200;28;20018;-68
2023/10/31 02:43:21;;;;;;;5.07;4.18;;;18.60;71.00;;;;;;5015468;28;20029;-67
2023/10/31 02:45:47;;;;;;;4.97;4.38;;;18.60;70.90;;;;;;5016979;28;20021;-68
2023/10/31 02:48:12;;;;;;;4.75;4.35;;;18.60;71.00;;;;;;5016251;28;20044;-67
2023/10/31 02:50:39;;;;;;;4.30;3.90;;;18.50;70.90;;;;;;5014591;28;20351;-67
2023/10/31 02:53:04;;;;;;;4.47;4.07;;;18.60;70.90;;;;;;5020579;28;20488;-68
2023/10/31 02:55:30;;;;;;;4.55;4.10;;;18.60;70.90;;;;;;5019155;28;20109;-68
2023/10/31 02:57:55;;;;;;;4.25;3.83;;;18.60;70.90;;;;;;5018578;28;20112;-66
2023/10/31 03:00:21;;;;;;;4.78;4.38;;;18.60;70.90;;;;;;5013170;28;20034;-68
2023/10/31 03:02:46;;;;;;;4.63;4.22;;;18.50;70.90;;;;;;5019902;28;20057;-67
2023/10/31 03:05:12;;;;;;;4.40;4.00;;;18.50;70.90;;;;;;5017426;28;20567;-68
2023/10/31 03:07:37;;;;;;;4.20;3.80;;;18.60;70.90;;;;;;5016914;28;20044;-68
2023/10/31 03:10:03;;;;;;;4.65;3.97;;;18.60;70.90;;;;;;5016782;28;20501;-67
2023/10/31 03:12:28;;;;;;;4.55;4.03;;;18.60;71.00;;;;;;5015071;28;20496;-67
2023/10/31 03:14:54;;;;;;;4.57;4.18;;;18.60;70.90;;;;;;5014479;28;20025;-69
2023/10/31 03:17:20;;;;;;;4.85;4.35;;;18.50;70.80;;;;;;5017334;28;20083;-67
2023/10/31 03:19:46;;;;;;;4.25;3.85;;;18.50;70.90;;;;;;5017025;28;20657;-67
2023/10/31 03:22:13;;;;;;;4.45;4.05;;;18.60;70.90;;;;;;5018439;28;20026;-67
2023/10/31 03:24:38;;;;;;;4.32;3.92;;;18.60;70.90;;;;;;5018715;28;20062;-68
2023/10/31 03:27:04;;;;;;;4.10;3.70;;;18.60;71.00;;;;;;5018242;28;20068;-68
2023/10/31 03:29:29;;;;;;;4.35;3.95;;;18.60;70.90;;;;;;5016819;28;20125;-66
2023/10/31 03:31:55;;;;;;;4.43;3.95;;;18.60;70.90;;;;;;5018224;28;20116;-68
2023/10/31 03:34:20;;;;;;;4.55;4.15;;;18.60;70.90;;;;;;5016830;28;20037;-68
2023/10/31 03:36:46;;;;;;;4.30;3.38;;;18.60;70.90;;;;;;5016871;28;20033;-67
2023/10/31 03:39:11;;;;;;;4.13;3.72;;;18.60;70.90;;;;;;5016107;28;20112;-68
2023/10/31 03:41:37;;;;;;;4.10;3.70;;;18.50;70.80;;;;;;5015613;28;20029;-68
2023/10/31 03:44:02;;;;;;;4.05;3.65;;;18.60;70.90;;;;;;5016408;28;20025;-67
2023/10/31 03:46:28;;;;;;;4.25;3.85;;;18.60;70.90;;;;;;5023538;28;20053;-68
2023/10/31 03:48:53;;;;;;;3.70;3.33;;;18.60;70.90;;;;;;5021098;28;20417;-67
2023/10/31 03:51:19;;;;;;;4.30;3.90;;;18.60;70.90;;;;;;5024463;28;20084;-68
2023/10/31 03:53:45;;;;;;;4.13;3.78;;;18.60;70.90;;;;;;5020974;28;20085;-68
2023/10/31 03:56:10;;;;;;;3.58;3.28;;;18.60;70.90;;;;;;5021704;28;20033;-67
2023/10/31 03:58:36;;;;;;;4.07;3.67;;;18.50;70.80;;;;;;5019382;28;20032;-67
2023/10/31 04:01:02;;;;;;;4.03;3.63;;;18.50;70.90;;;;;;5019229;28;20508;-68
2023/10/31 04:03:28;;;;;;;3.60;3.30;;;18.60;70.90;;;;;;5002332;28;20062;-66
2023/10/31 04:05:54;;;;;;;3.47;3.17;;;18.50;70.90;;;;;;5018329;28;20049;-69
2023/10/31 04:08:19;;;;;;;4.53;3.50;;;18.50;70.90;;;;;;5019734;28;20030;-67
2023/10/31 04:10:45;;;;;;;3.72;3.40;;;18.60;70.90;;;;;;5018061;28;20107;-69
2023/10/31 04:13:10;;;;;;;3.30;3.00;;;18.60;70.90;;;;;;5018144;28;20040;-67
2023/10/31 04:15:36;;;;;;;3.80;3.40;;;18.60;70.90;;;;;;5019542;28;20400;-67
2023/10/31 04:18:01;;;;;;;3.40;3.10;;;18.60;70.90;;;;;;5019917;28;20054;-66
2023/10/31 04:20:27;;;;;;;3.45;3.15;;;18.60;70.90;;;;;;5022172;28;20030;-65
2023/10/31 04:22:52;;;;;;;3.53;3.22;;;18.60;70.90;;;;;;5020447;28;20037;-66
2023/10/31 04:25:18;;;;;;;3.97;3.22;;;18.50;70.90;;;;;;5019741;28;20088;-67
2023/10/31 04:27:43;;;;;;;3.50;3.20;;;18.60;70.90;;;;;;5019296;28;20026;-67
2023/10/31 04:30:10;;;;;;;3.00;2.65;;;18.60;70.90;;;;;;5022793;28;20087;-67
2023/10/31 04:32:35;;;;;;;3.30;3.00;;;18.50;71.40;;;;;;5021078;28;20385;-66
2023/10/31 04:35:01;;;;;;;2.92;2.72;;;18.60;70.90;;;;;;5020382;28;20064;-67
2023/10/31 04:37:26;;;;;;;3.10;2.80;;;18.60;70.90;;;;;;5016647;28;20025;-68
2023/10/31 04:39:52;;;;;;;3.28;2.83;;;18.60;70.90;;;;;;5018916;28;20068;-69
2023/10/31 04:42:18;;;;;;;2.70;2.45;;;18.60;71.00;;;;;;5021334;28;20057;-68
2023/10/31 04:44:43;;;;;;;3.00;2.80;;;18.60;70.90;;;;;;5019426;28;20041;-68
2023/10/31 04:47:09;;;;;;;3.45;3.10;;;18.50;70.90;;;;;;5022005;28;20057;-68
2023/10/31 04:49:35;;;;;;;3.40;2.83;;;18.50;70.90;;;;;;5026050;28;20069;-68
2023/10/31 04:52:01;;;;;;;2.90;2.70;;;18.60;70.90;;;;;;5006891;28;20540;-69
2023/10/31 04:54:26;;;;;;;2.38;2.10;;;18.50;70.90;;;;;;5018596;28;20057;-69
2023/10/31 04:56:52;;;;;;;3.47;2.85;;;18.60;70.90;;;;;;5018986;28;20040;-68
2023/10/31 04:59:17;;;;;;;2.63;2.42;;;18.60;70.90;;;;;;5021040;28;20033;-68
2023/10/31 05:01:49;;;;;;;3.03;2.40;;;18.60;70.90;;;;;;5018600;28;20280;-69
2023/10/31 05:04:15;;;;;;;3.08;2.72;;;18.60;70.90;;;;;;5018089;28;20555;-68
2023/10/31 05:06:40;;;;;;;2.63;2.42;;;18.50;70.90;;;;;;5016069;28;20065;-69
2023/10/31 05:09:06;;;;;;;2.75;2.40;;;18.60;70.90;;;;;;5019273;28;20034;-69
2023/10/31 05:11:31;;;;;;;2.80;2.45;;;18.60;70.90;;;;;;5022492;28;20408;-67
2023/10/31 05:13:57;;;;;;;2.90;2.38;;;18.60;70.80;;;;;;5018119;28;20030;-67
2023/10/31 05:16:22;;;;;;;3.63;2.35;;;18.50;70.80;;;;;;5022240;28;20091;-68
2023/10/31 05:18:48;;;;;;;2.78;2.47;;;18.60;70.90;;;;;;5020589;28;20512;-68
2023/10/31 05:21:20;;;;;;;2.85;2.53;;;18.50;70.80;;;;;;5003118;28;20034;-67
2023/10/31 05:23:46;;;;;;;2.22;2.03;;;18.60;70.90;;;;;;5018281;28;20033;-68
2023/10/31 05:26:11;;;;;;;2.63;2.33;;;18.60;70.80;;;;;;5018479;28;20038;-68
2023/10/31 05:28:37;;;;;;;2.30;2.10;;;18.50;70.90;;;;;;5020340;28;20030;-68
2023/10/31 05:31:03;;;;;;;4.00;2.33;;;18.60;70.90;;;;;;5019511;28;20049;-68
2023/10/31 05:33:28;;;;;;;2.30;2.10;;;18.50;70.80;;;;;;5014402;28;20280;-68
2023/10/31 05:35:54;;;;;;;2.17;1.90;;;18.50;70.90;;;;;;5017183;28;20026;-67
2023/10/31 05:38:20;;;;;;;2.80;2.50;;;18.50;70.90;;;;;;5020016;28;20037;-68
2023/10/31 05:40:45;;;;;;;2.60;1.98;;;18.60;70.90;;;;;;5018029;28;20034;-68
2023/10/31 05:43:11;;;;;;;2.53;2.33;;;18.50;70.90;;;;;;5018942;28;20114;-67
2023/10/31 05:45:36;;;;;;;1.73;1.60;;;18.60;70.90;;;;;;5021684;28;20092;-68
2023/10/31 05:48:02;;;;;;;2.05;1.80;;;18.60;70.90;;;;;;5019060;28;20527;-68
2023/10/31 05:50:27;;;;;;;2.00;1.90;;;18.60;70.90;;;;;;5020777;28;20045;-68
2023/10/31 05:52:53;;;;;;;2.33;1.88;;;18.50;70.80;;;;;;5018279;28;20052;-68
2023/10/31 05:55:18;;;;;;;1.77;1.67;;;18.50;70.90;;;;;;5019145;28;20034;-68
2023/10/31 05:57:44;;;;;;;1.83;1.73;;;18.50;70.80;;;;;;5019522;28;20361;-68
2023/10/31 06:00:10;;;;;;;1.77;1.67;;;18.50;70.90;;;;;;5018914;28;20025;-67
2023/10/31 06:02:35;;;;;;;1.90;1.80;;;18.60;70.90;;;;;;5015728;28;20041;-68
2023/10/31 06:05:01;;;;;;;2.70;2.03;;;18.60;70.90;;;;;;5016141;28;20034;-68
2023/10/31 06:07:26;;;;;;;1.50;1.40;;;18.60;70.90;;;;;;5022459;28;20045;-67
2023/10/31 06:09:52;;;;;;;1.70;1.60;;;18.60;70.90;;;;;;5001167;28;20045;-68
2023/10/31 06:12:18;;;;;;;2.10;1.52;;;18.50;70.90;;;;;;5018990;28;20056;-68
2023/10/31 06:14:43;;;;;;;2.08;1.40;;;18.60;70.80;;;;;;5003261;28;20034;-67
2023/10/31 06:17:09;;;;;;;1.60;1.40;;;18.50;70.80;;;;;;5018661;28;20033;-68
2023/10/31 06:19:38;;;;;;;3.30;1.42;;;18.60;70.80;;;;;;5019212;28;20037;-65
2023/10/31 06:22:04;;;;;;;1.90;1.50;;;18.60;70.80;;;;;;5016974;28;20549;-68
2023/10/31 06:24:29;;;;;;;1.48;1.38;;;18.60;70.80;;;;;;5015597;28;20042;-66
2023/10/31 06:26:55;;;;;;;1.73;1.60;;;18.60;70.90;;;;;;5019912;28;20053;-67
2023/10/31 06:29:20;;;;;;;1.95;1.25;;;18.60;70.80;;;;;;5017485;28;20037;-67
2023/10/31 06:31:47;;;;;;;1.23;1.10;;;18.60;70.80;;;;;;5015199;28;20510;-68
2023/10/31 06:34:12;;;;;;;1.92;1.48;;;18.60;70.80;;;;;;5017568;28;20337;-67
2023/10/31 06:36:38;;;;;;;1.50;1.40;;;18.60;70.90;;;;;;5019983;28;20485;-67
2023/10/31 06:39:04;;;;;;;1.70;1.25;;;18.60;70.80;;;;;;5001309;28;20057;-68
2023/10/31 06:41:29;;;;;;;1.35;1.10;;;18.50;70.80;;;;;;5019325;28;20033;-68
2023/10/31 06:43:55;;;;;;;1.52;1.20;;;18.60;70.80;;;;;;5016349;28;20125;-67
2023/10/31 06:46:20;;;;;;;1.30;1.20;;;18.60;70.80;;;;;;5020816;28;20021;-67
2023/10/31 06:48:45;;;;;;;1.63;1.45;;;18.50;70.80;;;;;;5016483;28;20033;-69
2023/10/31 06:51:11;;;;;;;1.40;1.30;;;18.60;70.90;;;;;;5018299;28;20021;-67
2023/10/31 06:53:37;;;;;;;1.08;0.98;;;18.50;70.80;;;;;;5016932;28;20635;-68
2023/10/31 06:56:02;;;;;;;2.70;1.30;;;18.60;70.80;;;;;;5021234;28;20500;-67
2023/10/31 06:58:28;;;;;;;1.27;0.98;;;18.50;70.80;;;;;;5019320;28;20030;-68
2023/10/31 07:00:59;;;;;;;1.23;1.13;;;18.50;70.80;;;;;;5018579;28;20018;-68
2023/10/31 07:03:25;;;;;;;1.38;1.17;;;18.50;70.80;;;;;;5015716;28;20048;-67
2023/10/31 07:05:50;;;;;;;1.20;1.10;;;18.60;70.80;;;;;;5018427;28;20503;-68
2023/10/31 07:08:16;;;;;;;1.20;1.10;;;18.50;70.80;;;;;;5016814;28;20033;-68
2023/10/31 07:10:41;;;;;;;0.80;0.80;;;18.50;70.80;;;;;;5017117;28;20636;-68
2023/10/31 07:13:07;;;;;;;2.13;0.80;;;18.60;70.80;;;;;;5016369;28;20432;-67
2023/10/31 07:15:32;;;;;;;0.80;0.80;;;18.60;70.80;;;;;;5002183;28;20037;-68
2023/10/31 07:17:58;;;;;;;1.33;0.90;;;18.50;70.80;;;;;;5015616;28;20053;-68
2023/10/31 07:20:23;;;;;;;1.08;0.95;;;18.60;70.80;;;;;;5019123;28;20515;-62
2023/10/31 07:22:49;;;;;;;0.98;0.90;;;18.50;70.80;;;;;;5021083;28;20052;-65
2023/10/31 07:25:15;;;;;;;1.55;1.05;;;18.60;70.80;;;;;;5020251;28;20030;-67
2023/10/31 07:27:40;;;;;;;1.13;0.90;;;18.60;70.80;;;;;;5003202;28;20128;-64
2023/10/31 07:30:06;;;;;;;1.25;1.08;;;18.60;70.80;;;;;;5020565;28;20558;-69
2023/10/31 07:32:32;;;;;;;0.80;0.80;;;18.50;70.70;;;;;;5019790;28;20039;-69
2023/10/31 07:34:58;;;;;;;0.88;0.80;;;18.60;70.80;;;;;;5019411;28;20258;-69
2023/10/31 07:37:23;;;;;;;1.00;0.90;;;18.60;70.80;;;;;;5021790;28;20515;-65
2023/10/31 07:39:50;;;;;;;0.93;0.80;;;18.60;70.80;;;;;;5020929;28;20025;-65
2023/10/31 07:42:16;;;;;;;3.50;0.75;;;18.50;70.80;;;;;;5019378;28;20060;-64
2023/10/31 07:44:41;;;;;;;1.70;0.90;;;18.60;70.80;;;;;;5019603;28;20037;-61
2023/10/31 07:47:07;;;;;;;1.58;0.70;;;18.50;70.80;;;;;;5018783;28;20149;-65
2023/10/31 07:49:32;;;;;;;3.17;0.80;;;18.60;70.90;;;;;;5015582;28;20136;-65
2023/10/31 07:51:58;;;;;;;0.70;0.70;;;18.50;70.80;;;;;;5018701;28;20116;-64
2023/10/31 07:54:23;;;;;;;3.33;1.10;;;18.60;70.90;;;;;;5002041;28;20029;-65
2023/10/31 07:56:49;;;;;;;2.22;1.00;;;18.60;70.80;;;;;;5018785;28;20112;-63
2023/10/31 07:59:15;;;;;;;1.75;1.52;;;18.50;70.80;;;;;;5018600;28;20038;-64
2023/10/31 08:01:40;;;;;;;2.00;1.30;;;18.60;70.90;;;;;;5021478;28;20132;-64
2023/10/31 08:04:06;;;;;;;0.80;0.80;;;18.60;70.80;;;;;;5018486;28;20128;-63
2023/10/31 08:06:32;;;;;;;1.80;1.20;;;18.60;70.80;;;;;;5019842;28;20026;-64
2023/10/31 08:08:57;;;;;;;1.10;1.00;;;18.50;70.80;;;;;;5019737;28;20175;-65
2023/10/31 08:11:23;;;;;;;1.70;1.02;;;18.50;70.80;;;;;;5020389;28;20033;-64
2023/10/31 08:13:48;;;;;;;1.00;0.90;;;18.60;70.90;;;;;;5017800;28;20030;-64
2023/10/31 08:16:19;;;;;;;1.13;1.02;;;18.60;70.80;;;;;;5017454;28;20191;-64
2023/10/31 08:18:45;;;;;;;1.15;1.05;;;18.50;70.80;;;;;;5018017;28;20511;-64
2023/10/31 08:21:11;;;;;;;1.15;0.82;;;18.50;70.70;;;;;;5019573;28;20806;-64
2023/10/31 08:23:37;;;;;;;1.67;0.93;;;18.60;70.80;;;;;;5018476;28;20152;-64
2023/10/31 08:26:02;;;;;;;1.63;1.05;;;18.60;70.80;;;;;;5017108;28;20097;-66
2023/10/31 08:28:28;;;;;;;1.10;1.05;;;18.60;70.80;;;;;;5005782;28;20569;-66
2023/10/31 08:30:54;;;;;;;1.10;1.00;;;18.60;70.80;;;;;;5016883;28;20067;-66
2023/10/31 08:33:19;;;;;;;1.10;1.00;;;18.50;70.70;;;;;;5019212;28;20030;-66
2023/10/31 08:35:45;;;;;;;3.20;1.20;;;18.60;71.40;;;;;;5019610;28;20117;-68
2023/10/31 08:38:11;;;;;;;2.65;1.90;;;18.50;70.80;;;;;;5019543;28;20034;-66
2023/10/31 08:40:36;;;;;;;4.40;1.80;;;18.60;70.90;;;;;;5019440;28;20031;-66
2023/10/31 08:43:04;;;;;;;3.70;1.80;;;18.60;70.90;;;;;;5017596;28;20029;-65
2023/10/31 08:45:29;;;;;;;4.95;2.40;;;18.50;70.90;;;;;;5006282;28;20061;-66
2023/10/31 08:47:55;;;;;;;5.70;2.47;;;18.50;70.90;;;;;;5014832;28;20105;-66
2023/10/31 08:50:20;;;;;;;3.15;2.08;;;18.60;70.90;;;;;;5002170;28;20038;-65
2023/10/31 08:52:46;;;;;;;4.65;2.25;;;18.60;71.00;;;;;;5014344;28;20026;-66
2023/10/31 08:55:11;;;;;;;4.53;2.25;;;18.60;71.00;;;;;;5014699;28;20030;-66
2023/10/31 08:57:37;;;;;;;5.97;2.67;;;18.60;71.00;;;;;;5017128;28;20121;-65
2023/10/31 09:00:04;;;;;;;4.65;2.35;;;18.60;70.90;;;;;;5003831;28;20307;-66
2023/10/31 09:02:30;;;;;;;7.88;3.17;;;18.60;71.00;;;;;;5017422;28;20037;-65
2023/10/31 09:04:55;;;;;;;6.95;2.40;;;18.60;71.00;;;;;;5018868;28;20033;-65
2023/10/31 09:07:21;;;;;;;5.05;2.15;;;18.60;71.00;;;;;;5020628;28;20056;-65
2023/10/31 09:09:46;;;;;;;6.43;2.40;;;18.60;71.00;;;;;;5017836;28;20045;-65
2023/10/31 09:12:12;;;;;;;8.68;2.78;;;18.60;71.00;;;;;;5017748;28;20695;-65
2023/10/31 09:14:38;;;;;;;7.32;3.00;;;18.60;71.00;;;;;;5011144;28;20029;-64
2023/10/31 09:17:04;;;;;;;3.92;1.92;;;18.60;71.00;;;;;;5016244;28;20053;-66
2023/10/31 09:19:29;;;;;;;6.85;3.10;;;18.60;71.10;;;;;;5019075;28;20064;-66
2023/10/31 09:21:55;;;;;;;8.93;3.65;;;18.60;71.00;;;;;;5020360;28;20059;-66
2023/10/31 09:24:21;;;;;;;10.05;3.45;;;18.60;71.30;;;;;;5017474;28;20034;-66
2023/10/31 09:26:46;;;;;;;6.15;3.00;;;18.60;71.30;;;;;;5017474;28;20403;-65
2023/10/31 09:29:12;;;;;;;8.48;3.42;;;18.60;71.30;;;;;;5015653;28;20528;-67
2023/10/31 09:31:37;;;;;;;5.93;2.70;;;18.60;71.30;;;;;;5017673;28;20057;-64
2023/10/31 09:34:03;;;;;;;9.13;3.45;;;18.60;71.30;;;;;;5016711;28;20026;-65
2023/10/31 09:36:34;;;;;;;7.90;3.25;;;18.60;71.30;;;;;;5019522;28;20034;-64
2023/10/31 09:38:59;;;;;;;9.90;4.22;;;18.60;71.30;;;;;;5017466;28;20038;-65
2023/10/31 09:41:25;;;;;;;12.02;4.00;;;18.60;71.30;;;;;;5017098;28;20081;-64
2023/10/31 09:43:50;;;;;;;15.15;5.10;;;18.60;71.30;;;;;;5015500;28;20408;-65
2023/10/31 09:46:17;;;;;;;17.98;5.07;;;18.60;71.30;;;;;;5005093;28;20034;-65
2023/10/31 09:48:43;;;;;;;13.35;3.95;;;18.60;71.30;;;;;;5001063;28;20046;-66
2023/10/31 09:51:10;;;;;;;16.17;4.78;;;18.70;72.00;;;;;;5021268;28;20292;-65
2023/10/31 09:53:38;;;;;;;18.17;3.67;;;18.70;71.50;;;;;;5020548;28;20519;-66
2023/10/31 09:56:04;;;;;;;12.50;4.68;;;18.70;71.50;;;;;;5014903;28;20029;-66
2023/10/31 09:58:30;;;;;;;14.07;4.60;;;18.70;71.50;;;;;;5017111;28;20489;-64
2023/10/31 10:00:55;;;;;;;14.57;3.83;;;18.70;71.50;;;;;;5017566;28;20036;-66
2023/10/31 10:03:22;;;;;;;14.88;4.05;;;18.70;71.40;;;;;;5017391;28;20032;-65
2023/10/31 10:05:48;;;;;;;15.32;3.65;;;18.70;71.40;;;;;;5017952;28;20042;-65
2023/10/31 10:08:15;;;;;;;13.15;4.05;;;18.70;71.50;;;;;;4999152;28;20080;-65
2023/10/31 10:10:41;;;;;;;12.43;3.40;;;18.70;71.30;;;;;;4998697;28;20068;-63
2023/10/31 10:13:07;;;;;;;13.68;3.85;;;18.70;71.40;;;;;;5016185;28;20266;-64
2023/10/31 10:15:52;;;;;;;11.43;3.20;;;18.70;71.30;;;;;;5018234;28;20190;-64
2023/10/31 10:18:31;;;;;;;12.32;3.38;;;18.70;71.20;;;;;;5014689;28;20243;-68
2023/10/31 10:20:57;;;;;;;12.70;4.38;;;18.70;71.20;;;;;;5020777;28;20033;-64
2023/10/31 10:23:25;;;;;;;7.68;3.10;;;18.70;71.10;;;;;;5016758;28;20072;-66
2023/10/31 10:25:51;;;;;;;11.20;3.20;;;18.70;71.10;;;;;;5014790;28;20057;-65
2023/10/31 10:28:19;;;;;;;9.73;3.08;;;18.70;71.10;;;;;;5018246;28;20115;-66
2023/10/31 10:30:46;;;;;;;13.13;3.28;;;18.70;71.10;;;;;;5017625;28;20034;-66
2023/10/31 10:33:12;;;;;;;8.88;2.85;;;18.70;71.20;;;;;;5019345;28;20605;-67
2023/10/31 10:35:37;;;;;;;11.57;2.53;;;18.70;71.30;;;;;;5017752;28;20033;-67
2023/10/31 10:38:07;;;;;;;9.30;2.90;;;18.70;71.30;;;;;;5015828;28;20551;-65
2023/10/31 10:40:34;;;;;;;9.13;2.53;;;18.70;71.30;;;;;;5015393;28;20420;-66
2023/10/31 10:43:03;;;;;;;10.98;2.88;;;18.70;71.40;;;;;;4996088;28;20064;-68
2023/10/31 10:45:29;;;;;;;8.45;2.70;;;18.70;71.50;;;;;;5015608;28;20057;-67
2023/10/31 10:48:00;;;;;;;7.95;2.75;;;18.70;71.50;;;;;;5018127;28;20088;-67
2023/10/31 10:50:29;;;;;;;7.95;2.60;;;18.70;71.70;;;;;;5021023;28;20045;-66
2023/10/31 10:53:08;;;;;;;11.18;3.42;;;18.70;71.50;;;;;;4998196;28;20083;-66
2023/10/31 10:55:38;;;;;;;7.10;3.35;;;18.70;71.90;;;;;;5021925;28;20129;-67
2023/10/31 10:58:22;;;;;;;10.20;4.18;;;18.70;72.10;;;;;;5022658;28;20536;-65
2023/10/31 11:00:49;;;;;;;5.40;3.05;;;18.70;72.30;;;;;;5022415;28;20111;-66
2023/10/31 11:03:18;;;;;;;8.68;3.08;;;18.70;72.60;;;;;;5002958;28;20036;-66
2023/10/31 11:05:43;;;;;;;7.97;3.60;;;18.70;72.40;;;;;;5021009;28;20026;-66
2023/10/31 11:08:10;;;;;;;7.10;3.40;;;18.70;72.80;;;;;;5020948;28;20410;-67
2023/10/31 11:10:36;;;;;;;7.35;3.53;;;18.70;72.50;;;;;;5018321;28;20045;-64
2023/10/31 11:13:01;;;;;;;8.00;3.97;;;18.70;72.90;;;;;;5019050;28;20098;-67
2023/10/31 11:15:28;;;;;;;6.20;3.55;;;18.70;72.70;;;;;;5023527;28;20325;-67
2023/10/31 11:17:55;;;;;;;5.88;2.92;;;18.70;72.80;;;;;;5022692;28;20495;-66
2023/10/31 11:20:21;;;;;;;6.57;3.05;;;18.70;72.80;;;;;;5024393;28;20179;-65
2023/10/31 11:22:51;;;;;;;5.32;2.42;;;18.70;72.90;;;;;;5019225;28;20216;-67
2023/10/31 11:25:20;;;;;;;8.00;2.78;;;18.70;72.90;;;;;;5021075;28;20425;-64
2023/10/31 11:27:46;;;;;;;4.95;3.13;;;18.70;72.50;;;;;;5022314;28;20040;-68
2023/10/31 11:30:30;;;;;;;3.55;2.15;;;18.70;72.50;;;;;;5021901;28;20033;-65
2023/10/31 11:32:58;;;;;;;6.72;2.75;;;18.70;72.50;;;;;;5020966;28;20033;-66
2023/10/31 11:35:24;;;;;;;5.20;2.17;;;18.70;72.50;;;;;;5020384;28;20035;-66
2023/10/31 11:38:03;;;;;;;4.93;2.55;;;18.70;72.30;;;;;;5020174;28;20033;-66
2023/10/31 11:40:29;;;;;;;3.72;1.52;;;18.70;72.30;;;;;;5019089;28;20393;-66
2023/10/31 11:42:58;;;;;;;3.78;2.10;;;18.70;72.30;;;;;;5001558;28;20239;-66
2023/10/31 11:45:41;;;;;;;6.80;2.33;;;18.70;72.20;;;;;;5022327;28;20033;-67
2023/10/31 11:48:08;;;;;;;6.22;2.00;;;18.70;72.10;;;;;;5024539;28;20053;-64
2023/10/31 11:50:34;;;;;;;6.60;1.98;;;18.80;72.20;;;;;;5019897;28;20084;-67
2023/10/31 11:53:07;;;;;;;9.00;3.72;;;18.70;72.10;;;;;;5017165;28;20543;-67
2023/10/31 11:55:38;;;;;;;12.02;7.28;;;18.70;72.10;;;;;;5001967;28;20527;-67
2023/10/31 11:58:25;;;;;;;14.15;9.40;;;18.80;72.10;;;;;;5019111;28;20476;-66
2023/10/31 12:00:53;;;;;;;14.15;8.95;;;18.80;72.10;;;;;;5018010;28;20572;-66
2023/10/31 12:03:21;;;;;;;16.65;9.30;;;18.70;72.10;;;;;;5018079;28;20041;-63
2023/10/31 12:05:59;;;;;;;15.57;9.23;;;18.70;72.10;;;;;;5016604;28;20038;-66
2023/10/31 12:08:33;;;;;;;13.23;9.40;;;18.70;72.70;;;;;;5016953;28;20038;-68
2023/10/31 12:11:12;;;;;;;13.35;8.77;;;18.70;72.10;;;;;;5019163;28;20297;-67
2023/10/31 12:13:42;;;;;;;11.95;8.50;;;18.70;72.00;;;;;;5000662;28;20060;-68
2023/10/31 12:16:12;;;;;;;9.90;7.68;;;18.70;72.00;;;;;;5024416;28;20053;-69
2023/10/31 12:18:41;;;;;;;9.90;7.85;;;18.70;71.90;;;;;;5022908;28;20033;-66
2023/10/31 12:21:14;;;;;;;12.27;7.88;;;18.70;71.90;;;;;;5020002;28;20026;-64
2023/10/31 12:23:39;;;;;;;11.52;7.30;;;18.70;72.10;;;;;;5003607;28;20340;-64
2023/10/31 12:26:05;;;;;;;13.63;7.93;;;18.70;71.90;;;;;;5020571;28;20447;-63
2023/10/31 12:28:30;;;;;;;11.43;7.32;;;18.70;72.00;;;;;;5021502;28;20499;-64
2023/10/31 12:30:58;;;;;;;10.15;6.75;;;18.70;72.10;;;;;;5020525;28;20117;-65
2023/10/31 12:33:26;;;;;;;10.93;7.00;;;18.70;71.90;;;;;;5018051;28;20048;-64
2023/10/31 12:35:58;;;;;;;10.80;7.70;;;18.70;71.90;;;;;;5019507;28;20432;-57
2023/10/31 12:38:24;;;;;;;12.23;7.20;;;18.70;71.90;;;;;;5017759;28;20038;-64
2023/10/31 12:40:50;;;;;;;9.73;5.30;;;18.70;71.90;;;;;;5018372;28;20041;-64